sensor_id;sensor_type;location;lat;lon;timestamp;P1;durP1;ratioP1;P2;durP2;ratioP2
24301;SDS011;12421;49.732;20.078;2023-02-28T00:01:40;33.50;;;18.50;;
24301;SDS011;12421;49.732;20.078;2023-02-28T00:11:43;30.60;;;17.40;;
24301;SDS011;12421;49.732;20.078;2023-02-28T00:21:47;33.40;;;18.70;;
24301;SDS011;12421;49.732;20.078;2023-02-28T00:31:50;36.50;;;18.90;;
24301;SDS011;12421;49.732;20.078;2023-02-28T00:41:53;36.80;;;20.10;;
24301;SDS011;12421;49.732;20.078;2023-02-28T00:51:56;36.00;;;19.70;;
24301;SDS011;12421;49.732;20.078;2023-02-28T01:02:01;37.20;;;22.20;;
24301;SDS011;12421;49.732;20.078;2023-02-28T01:12:04;42.60;;;22.40;;
24301;SDS011;12421;49.732;20.078;2023-02-28T01:22:10;37.90;;;21.70;;
24301;SDS011;12421;49.732;20.078;2023-02-28T01:32:14;41.70;;;21.70;;
24301;SDS011;12421;49.732;20.078;2023-02-28T01:42:17;44.00;;;22.80;;
24301;SDS011;12421;49.732;20.078;2023-02-28T01:52:21;45.40;;;22.20;;
24301;SDS011;12421;49.732;20.078;2023-02-28T02:02:28;30.50;;;16.30;;
24301;SDS011;12421;49.732;20.078;2023-02-28T02:43:21;30.90;;;16.60;;
24301;SDS011;12421;49.732;20.078;2023-02-28T02:53:35;21.20;;;11.90;;
24301;SDS011;12421;49.732;20.078;2023-02-28T03:03:43;24.50;;;12.10;;
24301;SDS011;12421;49.732;20.078;2023-02-28T03:14:10;24.60;;;12.40;;
24301;SDS011;12421;49.732;20.078;2023-02-28T03:24:44;25.50;;;14.10;;
24301;SDS011;12421;49.732;20.078;2023-02-28T03:45:02;26.60;;;13.30;;
24301;SDS011;12421;49.732;20.078;2023-02-28T03:55:12;23.20;;;13.40;;
24301;SDS011;12421;49.732;20.078;2023-02-28T04:05:18;27.70;;;13.40;;
24301;SDS011;12421;49.732;20.078;2023-02-28T04:15:22;23.10;;;12.50;;
24301;SDS011;12421;49.732;20.078;2023-02-28T04:25:27;25.10;;;12.40;;
24301;SDS011;12421;49.732;20.078;2023-02-28T04:35:30;25.80;;;14.40;;
24301;SDS011;12421;49.732;20.078;2023-02-28T04:45:34;27.90;;;15.60;;
24301;SDS011;12421;49.732;20.078;2023-02-28T04:55:38;27.60;;;15.10;;
24301;SDS011;12421;49.732;20.078;2023-02-28T05:05:43;21.00;;;12.80;;
24301;SDS011;12421;49.732;20.078;2023-02-28T05:15:46;28.80;;;15.90;;
24301;SDS011;12421;49.732;20.078;2023-02-28T05:25:49;23.60;;;13.50;;
24301;SDS011;12421;49.732;20.078;2023-02-28T05:35:54;24.70;;;12.90;;
24301;SDS011;12421;49.732;20.078;2023-02-28T05:45:59;29.70;;;15.90;;
24301;SDS011;12421;49.732;20.078;2023-02-28T05:56:04;38.30;;;18.90;;
24301;SDS011;12421;49.732;20.078;2023-02-28T06:06:07;29.80;;;15.80;;
24301;SDS011;12421;49.732;20.078;2023-02-28T06:16:11;33.80;;;17.20;;
24301;SDS011;12421;49.732;20.078;2023-02-28T06:26:15;39.90;;;18.20;;
24301;SDS011;12421;49.732;20.078;2023-02-28T06:36:19;39.60;;;19.30;;
24301;SDS011;12421;49.732;20.078;2023-02-28T06:46:23;50.50;;;29.10;;
24301;SDS011;12421;49.732;20.078;2023-02-28T06:56:27;47.00;;;23.70;;
24301;SDS011;12421;49.732;20.078;2023-02-28T07:06:30;42.50;;;21.20;;
24301;SDS011;12421;49.732;20.078;2023-02-28T07:16:34;34.00;;;17.90;;
24301;SDS011;12421;49.732;20.078;2023-02-28T07:26:38;26.90;;;15.80;;
24301;SDS011;12421;49.732;20.078;2023-02-28T07:36:41;36.80;;;21.00;;
24301;SDS011;12421;49.732;20.078;2023-02-28T07:46:45;34.20;;;19.40;;
24301;SDS011;12421;49.732;20.078;2023-02-28T07:56:48;12.00;;;7.60;;
24301;SDS011;12421;49.732;20.078;2023-02-28T08:06:52;15.70;;;8.10;;
24301;SDS011;12421;49.732;20.078;2023-02-28T08:16:55;11.30;;;6.20;;
24301;SDS011;12421;49.732;20.078;2023-02-28T08:26:59;13.70;;;5.90;;
24301;SDS011;12421;49.732;20.078;2023-02-28T08:37:02;12.40;;;6.20;;
24301;SDS011;12421;49.732;20.078;2023-02-28T08:47:05;12.70;;;7.00;;
24301;SDS011;12421;49.732;20.078;2023-02-28T08:57:09;16.00;;;9.00;;
24301;SDS011;12421;49.732;20.078;2023-02-28T09:07:12;12.40;;;7.60;;
24301;SDS011;12421;49.732;20.078;2023-02-28T09:17:16;12.30;;;7.50;;
24301;SDS011;12421;49.732;20.078;2023-02-28T09:27:19;13.70;;;7.60;;
24301;SDS011;12421;49.732;20.078;2023-02-28T09:37:23;14.30;;;8.70;;
24301;SDS011;12421;49.732;20.078;2023-02-28T09:47:34;11.20;;;7.00;;
24301;SDS011;12421;49.732;20.078;2023-02-28T09:57:42;12.60;;;7.40;;
24301;SDS011;12421;49.732;20.078;2023-02-28T10:18:30;15.30;;;6.80;;
24301;SDS011;12421;49.732;20.078;2023-02-28T10:28:53;12.70;;;7.00;;
24301;SDS011;12421;49.732;20.078;2023-02-28T10:38:58;11.00;;;7.50;;
24301;SDS011;12421;49.732;20.078;2023-02-28T10:49:05;13.40;;;7.80;;
24301;SDS011;12421;49.732;20.078;2023-02-28T11:09:21;13.00;;;7.90;;
24301;SDS011;12421;49.732;20.078;2023-02-28T11:19:38;17.70;;;8.70;;
24301;SDS011;12421;49.732;20.078;2023-02-28T11:29:47;11.20;;;7.90;;
24301;SDS011;12421;49.732;20.078;2023-02-28T11:39:52;13.50;;;8.90;;
24301;SDS011;12421;49.732;20.078;2023-02-28T12:10:52;14.10;;;9.20;;
24301;SDS011;12421;49.732;20.078;2023-02-28T12:31:44;15.20;;;8.90;;
24301;SDS011;12421;49.732;20.078;2023-02-28T12:42:03;11.20;;;7.30;;
24301;SDS011;12421;49.732;20.078;2023-02-28T12:52:10;11.30;;;8.40;;
24301;SDS011;12421;49.732;20.078;2023-02-28T13:12:25;12.60;;;8.50;;
24301;SDS011;12421;49.732;20.078;2023-02-28T13:22:46;12.60;;;8.90;;
24301;SDS011;12421;49.732;20.078;2023-02-28T13:33:17;15.70;;;10.00;;
24301;SDS011;12421;49.732;20.078;2023-02-28T13:43:32;15.00;;;9.80;;
24301;SDS011;12421;49.732;20.078;2023-02-28T13:54:13;14.60;;;10.00;;
24301;SDS011;12421;49.732;20.078;2023-02-28T14:24:59;21.90;;;11.90;;
24301;SDS011;12421;49.732;20.078;2023-02-28T14:35:56;18.90;;;12.00;;
24301;SDS011;12421;49.732;20.078;2023-02-28T14:46:06;20.80;;;12.10;;
24301;SDS011;12421;49.732;20.078;2023-02-28T15:06:41;21.20;;;11.90;;
24301;SDS011;12421;49.732;20.078;2023-02-28T15:16:44;23.00;;;13.40;;
24301;SDS011;12421;49.732;20.078;2023-02-28T15:26:56;18.70;;;11.70;;
24301;SDS011;12421;49.732;20.078;2023-02-28T15:37:01;22.60;;;14.00;;
24301;SDS011;12421;49.732;20.078;2023-02-28T15:57:23;31.40;;;17.90;;
24301;SDS011;12421;49.732;20.078;2023-02-28T16:07:30;25.70;;;14.60;;
24301;SDS011;12421;49.732;20.078;2023-02-28T16:17:35;37.50;;;20.00;;
24301;SDS011;12421;49.732;20.078;2023-02-28T16:27:42;33.00;;;18.30;;
24301;SDS011;12421;49.732;20.078;2023-02-28T16:37:48;24.00;;;14.70;;
24301;SDS011;12421;49.732;20.078;2023-02-28T16:47:55;25.40;;;16.30;;
24301;SDS011;12421;49.732;20.078;2023-02-28T16:57:59;32.90;;;19.00;;
24301;SDS011;12421;49.732;20.078;2023-02-28T17:08:04;52.70;;;25.90;;
24301;SDS011;12421;49.732;20.078;2023-02-28T17:18:09;49.20;;;27.80;;
24301;SDS011;12421;49.732;20.078;2023-02-28T17:28:19;46.80;;;23.40;;
24301;SDS011;12421;49.732;20.078;2023-02-28T17:38:24;43.30;;;22.80;;
24301;SDS011;12421;49.732;20.078;2023-02-28T17:48:27;46.00;;;24.60;;
24301;SDS011;12421;49.732;20.078;2023-02-28T17:58:33;52.90;;;28.20;;
24301;SDS011;12421;49.732;20.078;2023-02-28T18:08:37;53.80;;;27.70;;
24301;SDS011;12421;49.732;20.078;2023-02-28T18:18:41;79.10;;;40.30;;
24301;SDS011;12421;49.732;20.078;2023-02-28T18:28:46;69.00;;;35.40;;
24301;SDS011;12421;49.732;20.078;2023-02-28T18:38:50;63.60;;;33.40;;
24301;SDS011;12421;49.732;20.078;2023-02-28T18:48:54;60.70;;;32.50;;
24301;SDS011;12421;49.732;20.078;2023-02-28T18:58:57;59.50;;;32.10;;
24301;SDS011;12421;49.732;20.078;2023-02-28T19:09:01;62.10;;;30.40;;
24301;SDS011;12421;49.732;20.078;2023-02-28T19:19:06;66.80;;;36.90;;
24301;SDS011;12421;49.732;20.078;2023-02-28T19:29:09;62.80;;;33.10;;
24301;SDS011;12421;49.732;20.078;2023-02-28T19:39:12;74.50;;;40.00;;
24301;SDS011;12421;49.732;20.078;2023-02-28T19:49:15;82.90;;;40.10;;
24301;SDS011;12421;49.732;20.078;2023-02-28T19:59:21;81.10;;;36.80;;
24301;SDS011;12421;49.732;20.078;2023-02-28T20:09:40;94.40;;;40.10;;
24301;SDS011;12421;49.732;20.078;2023-02-28T20:19:44;67.30;;;34.60;;
24301;SDS011;12421;49.732;20.078;2023-02-28T20:29:47;72.00;;;36.50;;
24301;SDS011;12421;49.732;20.078;2023-02-28T20:39:51;64.30;;;31.90;;
24301;SDS011;12421;49.732;20.078;2023-02-28T20:49:55;73.70;;;35.10;;
24301;SDS011;12421;49.732;20.078;2023-02-28T20:59:58;74.90;;;38.40;;
24301;SDS011;12421;49.732;20.078;2023-02-28T21:10:01;102.20;;;50.40;;
24301;SDS011;12421;49.732;20.078;2023-02-28T21:20:05;71.20;;;35.10;;
24301;SDS011;12421;49.732;20.078;2023-02-28T21:30:08;94.70;;;46.50;;
24301;SDS011;12421;49.732;20.078;2023-02-28T21:40:12;83.20;;;44.90;;
24301;SDS011;12421;49.732;20.078;2023-02-28T21:50:15;90.70;;;43.60;;
24301;SDS011;12421;49.732;20.078;2023-02-28T22:00:19;83.70;;;40.50;;
24301;SDS011;12421;49.732;20.078;2023-02-28T22:10:22;87.10;;;45.80;;
24301;SDS011;12421;49.732;20.078;2023-02-28T22:20:26;126.80;;;62.90;;
24301;SDS011;12421;49.732;20.078;2023-02-28T22:30:29;93.20;;;45.50;;
24301;SDS011;12421;49.732;20.078;2023-02-28T22:40:33;98.80;;;47.00;;
24301;SDS011;12421;49.732;20.078;2023-02-28T22:50:37;103.80;;;49.60;;
24301;SDS011;12421;49.732;20.078;2023-02-28T23:00:41;86.60;;;46.50;;
24301;SDS011;12421;49.732;20.078;2023-02-28T23:10:45;88.60;;;44.60;;
24301;SDS011;12421;49.732;20.078;2023-02-28T23:20:48;86.20;;;42.40;;
24301;SDS011;12421;49.732;20.078;2023-02-28T23:30:51;90.20;;;43.80;;
24301;SDS011;12421;49.732;20.078;2023-02-28T23:40:55;100.00;;;46.50;;
24301;SDS011;12421;49.732;20.078;2023-02-28T23:51:17;73.90;;;33.10;;
